sensor_id;sensor_type;location;lat;lon;timestamp;P1;durP1;ratioP1;P2;durP2;ratioP2
28844;SDS011;15976;47.938;7.758;2023-07-30T00:00:52;3.67;;;2.75;;
28844;SDS011;15976;47.938;7.758;2023-07-30T00:03:19;6.30;;;3.00;;
28844;SDS011;15976;47.938;7.758;2023-07-30T00:05:56;3.38;;;2.50;;
28844;SDS011;15976;47.938;7.758;2023-07-30T00:08:23;4.35;;;2.55;;
28844;SDS011;15976;47.938;7.758;2023-07-30T00:10:50;3.35;;;2.70;;
28844;SDS011;15976;47.938;7.758;2023-07-30T00:13:17;3.03;;;2.70;;
28844;SDS011;15976;47.938;7.758;2023-07-30T00:15:47;3.28;;;2.67;;
28844;SDS011;15976;47.938;7.758;2023-07-30T00:18:15;3.17;;;2.67;;
28844;SDS011;15976;47.938;7.758;2023-07-30T00:20:42;4.90;;;3.05;;
28844;SDS011;15976;47.938;7.758;2023-07-30T00:23:09;3.25;;;2.75;;
28844;SDS011;15976;47.938;7.758;2023-07-30T00:25:37;4.82;;;2.70;;
28844;SDS011;15976;47.938;7.758;2023-07-30T00:28:04;4.28;;;2.90;;
28844;SDS011;15976;47.938;7.758;2023-07-30T00:30:31;4.18;;;2.83;;
28844;SDS011;15976;47.938;7.758;2023-07-30T00:32:58;3.47;;;2.83;;
28844;SDS011;15976;47.938;7.758;2023-07-30T00:35:25;3.17;;;2.88;;
28844;SDS011;15976;47.938;7.758;2023-07-30T00:37:52;4.20;;;2.70;;
28844;SDS011;15976;47.938;7.758;2023-07-30T00:40:19;3.50;;;2.60;;
28844;SDS011;15976;47.938;7.758;2023-07-30T00:42:46;4.53;;;2.75;;
28844;SDS011;15976;47.938;7.758;2023-07-30T00:45:13;3.85;;;3.05;;
28844;SDS011;15976;47.938;7.758;2023-07-30T00:47:41;5.93;;;2.60;;
28844;SDS011;15976;47.938;7.758;2023-07-30T00:50:08;5.97;;;3.05;;
28844;SDS011;15976;47.938;7.758;2023-07-30T00:52:38;5.88;;;2.67;;
28844;SDS011;15976;47.938;7.758;2023-07-30T00:55:06;4.05;;;2.85;;
28844;SDS011;15976;47.938;7.758;2023-07-30T00:57:34;4.25;;;3.00;;
28844;SDS011;15976;47.938;7.758;2023-07-30T01:00:04;3.85;;;2.65;;
28844;SDS011;15976;47.938;7.758;2023-07-30T01:02:35;3.45;;;2.60;;
28844;SDS011;15976;47.938;7.758;2023-07-30T01:05:03;4.43;;;2.35;;
28844;SDS011;15976;47.938;7.758;2023-07-30T01:07:31;4.63;;;3.10;;
28844;SDS011;15976;47.938;7.758;2023-07-30T01:09:59;3.85;;;2.85;;
28844;SDS011;15976;47.938;7.758;2023-07-30T01:12:28;3.83;;;3.05;;
28844;SDS011;15976;47.938;7.758;2023-07-30T01:14:57;4.75;;;2.63;;
28844;SDS011;15976;47.938;7.758;2023-07-30T01:17:25;3.80;;;2.80;;
28844;SDS011;15976;47.938;7.758;2023-07-30T01:19:53;2.95;;;2.63;;
28844;SDS011;15976;47.938;7.758;2023-07-30T01:22:21;5.10;;;2.78;;
28844;SDS011;15976;47.938;7.758;2023-07-30T01:24:49;4.40;;;2.95;;
28844;SDS011;15976;47.938;7.758;2023-07-30T01:27:28;5.07;;;3.20;;
28844;SDS011;15976;47.938;7.758;2023-07-30T01:32:52;4.03;;;2.75;;
28844;SDS011;15976;47.938;7.758;2023-07-30T01:35:25;3.60;;;3.00;;
28844;SDS011;15976;47.938;7.758;2023-07-30T01:37:54;4.05;;;2.90;;
28844;SDS011;15976;47.938;7.758;2023-07-30T01:40:21;2.90;;;2.53;;
28844;SDS011;15976;47.938;7.758;2023-07-30T01:42:49;5.13;;;2.70;;
28844;SDS011;15976;47.938;7.758;2023-07-30T01:45:16;3.67;;;2.88;;
28844;SDS011;15976;47.938;7.758;2023-07-30T01:47:44;3.92;;;2.60;;
28844;SDS011;15976;47.938;7.758;2023-07-30T01:50:11;4.60;;;3.10;;
28844;SDS011;15976;47.938;7.758;2023-07-30T01:52:38;6.18;;;2.85;;
28844;SDS011;15976;47.938;7.758;2023-07-30T01:55:05;3.50;;;2.85;;
28844;SDS011;15976;47.938;7.758;2023-07-30T01:57:33;3.78;;;2.60;;
28844;SDS011;15976;47.938;7.758;2023-07-30T02:00:00;3.97;;;2.50;;
28844;SDS011;15976;47.938;7.758;2023-07-30T02:02:27;3.25;;;2.80;;
28844;SDS011;15976;47.938;7.758;2023-07-30T02:04:54;3.42;;;2.85;;
28844;SDS011;15976;47.938;7.758;2023-07-30T02:07:21;3.40;;;2.55;;
28844;SDS011;15976;47.938;7.758;2023-07-30T02:09:48;3.75;;;2.45;;
28844;SDS011;15976;47.938;7.758;2023-07-30T02:12:15;2.83;;;2.53;;
28844;SDS011;15976;47.938;7.758;2023-07-30T02:14:43;2.65;;;2.45;;
28844;SDS011;15976;47.938;7.758;2023-07-30T02:17:10;3.13;;;2.65;;
28844;SDS011;15976;47.938;7.758;2023-07-30T02:19:37;2.97;;;2.65;;
28844;SDS011;15976;47.938;7.758;2023-07-30T02:22:04;2.95;;;2.63;;
28844;SDS011;15976;47.938;7.758;2023-07-30T02:24:32;3.47;;;2.92;;
28844;SDS011;15976;47.938;7.758;2023-07-30T02:26:59;3.78;;;2.72;;
28844;SDS011;15976;47.938;7.758;2023-07-30T02:29:27;3.75;;;2.65;;
28844;SDS011;15976;47.938;7.758;2023-07-30T02:31:54;2.90;;;2.60;;
28844;SDS011;15976;47.938;7.758;2023-07-30T02:34:21;4.55;;;2.63;;
28844;SDS011;15976;47.938;7.758;2023-07-30T02:36:49;3.67;;;2.67;;
28844;SDS011;15976;47.938;7.758;2023-07-30T02:39:16;2.92;;;2.42;;
28844;SDS011;15976;47.938;7.758;2023-07-30T02:41:43;4.35;;;2.70;;
28844;SDS011;15976;47.938;7.758;2023-07-30T02:44:10;4.68;;;2.78;;
28844;SDS011;15976;47.938;7.758;2023-07-30T02:46:37;3.63;;;2.80;;
28844;SDS011;15976;47.938;7.758;2023-07-30T02:49:04;3.85;;;2.90;;
28844;SDS011;15976;47.938;7.758;2023-07-30T02:51:31;6.00;;;3.00;;
28844;SDS011;15976;47.938;7.758;2023-07-30T02:53:58;3.95;;;2.70;;
28844;SDS011;15976;47.938;7.758;2023-07-30T02:56:27;4.25;;;2.78;;
28844;SDS011;15976;47.938;7.758;2023-07-30T02:58:55;4.63;;;3.10;;
28844;SDS011;15976;47.938;7.758;2023-07-30T03:01:22;4.93;;;2.45;;
28844;SDS011;15976;47.938;7.758;2023-07-30T03:03:49;2.80;;;2.50;;
28844;SDS011;15976;47.938;7.758;2023-07-30T03:06:16;3.30;;;2.47;;
28844;SDS011;15976;47.938;7.758;2023-07-30T03:08:43;3.35;;;2.72;;
28844;SDS011;15976;47.938;7.758;2023-07-30T03:11:10;3.83;;;2.67;;
28844;SDS011;15976;47.938;7.758;2023-07-30T03:13:37;3.97;;;2.55;;
28844;SDS011;15976;47.938;7.758;2023-07-30T03:16:04;4.28;;;2.65;;
28844;SDS011;15976;47.938;7.758;2023-07-30T03:18:31;3.58;;;2.55;;
28844;SDS011;15976;47.938;7.758;2023-07-30T03:20:59;5.25;;;2.67;;
28844;SDS011;15976;47.938;7.758;2023-07-30T03:23:27;4.07;;;2.50;;
28844;SDS011;15976;47.938;7.758;2023-07-30T03:25:54;3.15;;;2.47;;
28844;SDS011;15976;47.938;7.758;2023-07-30T03:28:21;4.47;;;2.42;;
28844;SDS011;15976;47.938;7.758;2023-07-30T03:30:48;3.63;;;2.65;;
28844;SDS011;15976;47.938;7.758;2023-07-30T03:33:17;3.05;;;2.72;;
28844;SDS011;15976;47.938;7.758;2023-07-30T03:35:45;4.10;;;2.55;;
28844;SDS011;15976;47.938;7.758;2023-07-30T03:38:12;6.50;;;3.00;;
28844;SDS011;15976;47.938;7.758;2023-07-30T03:40:40;4.30;;;2.90;;
28844;SDS011;15976;47.938;7.758;2023-07-30T03:43:07;4.18;;;2.53;;
28844;SDS011;15976;47.938;7.758;2023-07-30T03:45:34;3.25;;;2.53;;
28844;SDS011;15976;47.938;7.758;2023-07-30T03:48:01;3.13;;;2.63;;
28844;SDS011;15976;47.938;7.758;2023-07-30T03:50:28;2.78;;;2.30;;
28844;SDS011;15976;47.938;7.758;2023-07-30T03:52:55;3.05;;;2.50;;
28844;SDS011;15976;47.938;7.758;2023-07-30T03:55:23;2.75;;;2.47;;
28844;SDS011;15976;47.938;7.758;2023-07-30T03:57:50;3.58;;;2.33;;
28844;SDS011;15976;47.938;7.758;2023-07-30T04:00:18;5.13;;;3.00;;
28844;SDS011;15976;47.938;7.758;2023-07-30T04:02:45;3.78;;;2.42;;
28844;SDS011;15976;47.938;7.758;2023-07-30T04:05:12;2.90;;;2.22;;
28844;SDS011;15976;47.938;7.758;2023-07-30T04:07:39;3.78;;;2.55;;
28844;SDS011;15976;47.938;7.758;2023-07-30T04:10:07;3.10;;;2.40;;
28844;SDS011;15976;47.938;7.758;2023-07-30T04:12:34;4.38;;;2.50;;
28844;SDS011;15976;47.938;7.758;2023-07-30T04:15:02;2.63;;;2.25;;
28844;SDS011;15976;47.938;7.758;2023-07-30T04:17:29;3.60;;;2.33;;
28844;SDS011;15976;47.938;7.758;2023-07-30T04:19:56;2.97;;;2.33;;
28844;SDS011;15976;47.938;7.758;2023-07-30T04:22:23;2.70;;;2.33;;
28844;SDS011;15976;47.938;7.758;2023-07-30T04:24:51;3.80;;;2.35;;
28844;SDS011;15976;47.938;7.758;2023-07-30T04:27:18;2.65;;;2.20;;
28844;SDS011;15976;47.938;7.758;2023-07-30T04:29:45;3.05;;;2.58;;
28844;SDS011;15976;47.938;7.758;2023-07-30T04:32:13;3.08;;;2.55;;
28844;SDS011;15976;47.938;7.758;2023-07-30T04:34:40;3.20;;;2.28;;
28844;SDS011;15976;47.938;7.758;2023-07-30T04:37:07;3.00;;;2.20;;
28844;SDS011;15976;47.938;7.758;2023-07-30T04:39:35;3.17;;;2.10;;
28844;SDS011;15976;47.938;7.758;2023-07-30T04:42:06;2.80;;;2.13;;
28844;SDS011;15976;47.938;7.758;2023-07-30T04:44:33;2.83;;;2.00;;
28844;SDS011;15976;47.938;7.758;2023-07-30T04:47:09;4.15;;;2.20;;
28844;SDS011;15976;47.938;7.758;2023-07-30T04:49:36;2.80;;;2.10;;
28844;SDS011;15976;47.938;7.758;2023-07-30T04:52:07;2.55;;;2.28;;
28844;SDS011;15976;47.938;7.758;2023-07-30T04:54:34;3.83;;;2.47;;
28844;SDS011;15976;47.938;7.758;2023-07-30T04:57:04;4.30;;;2.40;;
28844;SDS011;15976;47.938;7.758;2023-07-30T04:59:32;4.45;;;2.10;;
28844;SDS011;15976;47.938;7.758;2023-07-30T05:02:00;2.80;;;2.28;;
28844;SDS011;15976;47.938;7.758;2023-07-30T05:04:27;3.78;;;2.47;;
28844;SDS011;15976;47.938;7.758;2023-07-30T05:06:54;3.40;;;2.30;;
28844;SDS011;15976;47.938;7.758;2023-07-30T05:09:22;2.42;;;2.10;;
28844;SDS011;15976;47.938;7.758;2023-07-30T05:11:49;4.03;;;2.10;;
28844;SDS011;15976;47.938;7.758;2023-07-30T05:14:16;3.08;;;2.40;;
28844;SDS011;15976;47.938;7.758;2023-07-30T05:16:43;2.47;;;2.20;;
28844;SDS011;15976;47.938;7.758;2023-07-30T05:19:10;3.78;;;2.10;;
28844;SDS011;15976;47.938;7.758;2023-07-30T05:21:37;2.83;;;2.20;;
28844;SDS011;15976;47.938;7.758;2023-07-30T05:24:05;3.95;;;2.00;;
28844;SDS011;15976;47.938;7.758;2023-07-30T05:26:34;4.20;;;2.10;;
28844;SDS011;15976;47.938;7.758;2023-07-30T05:29:01;3.92;;;2.30;;
28844;SDS011;15976;47.938;7.758;2023-07-30T05:31:29;2.83;;;2.08;;
28844;SDS011;15976;47.938;7.758;2023-07-30T05:33:57;2.63;;;2.42;;
28844;SDS011;15976;47.938;7.758;2023-07-30T05:36:24;2.08;;;1.85;;
28844;SDS011;15976;47.938;7.758;2023-07-30T05:38:51;3.30;;;2.28;;
28844;SDS011;15976;47.938;7.758;2023-07-30T05:41:18;4.53;;;2.10;;
28844;SDS011;15976;47.938;7.758;2023-07-30T05:43:47;3.10;;;1.90;;
28844;SDS011;15976;47.938;7.758;2023-07-30T05:46:15;2.90;;;2.08;;
28844;SDS011;15976;47.938;7.758;2023-07-30T05:48:42;2.90;;;1.90;;
28844;SDS011;15976;47.938;7.758;2023-07-30T05:51:09;2.30;;;1.80;;
28844;SDS011;15976;47.938;7.758;2023-07-30T05:53:36;2.75;;;2.40;;
28844;SDS011;15976;47.938;7.758;2023-07-30T05:56:04;4.22;;;1.80;;
28844;SDS011;15976;47.938;7.758;2023-07-30T05:58:31;3.50;;;2.15;;
28844;SDS011;15976;47.938;7.758;2023-07-30T06:00:58;2.20;;;1.98;;
28844;SDS011;15976;47.938;7.758;2023-07-30T06:03:25;2.20;;;2.00;;
28844;SDS011;15976;47.938;7.758;2023-07-30T06:05:52;2.75;;;2.25;;
28844;SDS011;15976;47.938;7.758;2023-07-30T06:08:19;2.30;;;2.05;;
28844;SDS011;15976;47.938;7.758;2023-07-30T06:10:46;4.32;;;2.13;;
28844;SDS011;15976;47.938;7.758;2023-07-30T06:13:13;3.70;;;2.00;;
28844;SDS011;15976;47.938;7.758;2023-07-30T06:15:40;2.42;;;2.10;;
28844;SDS011;15976;47.938;7.758;2023-07-30T06:18:07;3.80;;;2.35;;
28844;SDS011;15976;47.938;7.758;2023-07-30T06:20:35;2.90;;;2.05;;
28844;SDS011;15976;47.938;7.758;2023-07-30T06:23:02;4.97;;;2.40;;
28844;SDS011;15976;47.938;7.758;2023-07-30T06:25:30;2.83;;;2.15;;
28844;SDS011;15976;47.938;7.758;2023-07-30T06:27:57;4.25;;;2.20;;
28844;SDS011;15976;47.938;7.758;2023-07-30T06:30:25;4.35;;;2.45;;
28844;SDS011;15976;47.938;7.758;2023-07-30T06:32:52;3.10;;;2.40;;
28844;SDS011;15976;47.938;7.758;2023-07-30T06:35:19;3.67;;;2.03;;
28844;SDS011;15976;47.938;7.758;2023-07-30T06:37:46;3.03;;;1.90;;
28844;SDS011;15976;47.938;7.758;2023-07-30T06:40:13;2.33;;;1.90;;
28844;SDS011;15976;47.938;7.758;2023-07-30T06:42:40;5.95;;;2.20;;
28844;SDS011;15976;47.938;7.758;2023-07-30T06:45:07;3.05;;;2.38;;
28844;SDS011;15976;47.938;7.758;2023-07-30T06:47:35;2.47;;;2.15;;
28844;SDS011;15976;47.938;7.758;2023-07-30T06:50:03;2.42;;;1.83;;
28844;SDS011;15976;47.938;7.758;2023-07-30T06:52:31;2.33;;;1.90;;
28844;SDS011;15976;47.938;7.758;2023-07-30T06:54:58;2.20;;;2.00;;
28844;SDS011;15976;47.938;7.758;2023-07-30T06:57:25;5.80;;;2.08;;
28844;SDS011;15976;47.938;7.758;2023-07-30T06:59:52;2.83;;;2.20;;
28844;SDS011;15976;47.938;7.758;2023-07-30T07:02:19;3.97;;;2.20;;
28844;SDS011;15976;47.938;7.758;2023-07-30T07:04:46;2.90;;;1.95;;
28844;SDS011;15976;47.938;7.758;2023-07-30T07:07:13;1.98;;;1.75;;
28844;SDS011;15976;47.938;7.758;2023-07-30T07:09:40;3.97;;;2.20;;
28844;SDS011;15976;47.938;7.758;2023-07-30T07:12:07;3.00;;;2.45;;
28844;SDS011;15976;47.938;7.758;2023-07-30T07:14:34;3.92;;;2.10;;
28844;SDS011;15976;47.938;7.758;2023-07-30T07:17:01;2.97;;;2.20;;
28844;SDS011;15976;47.938;7.758;2023-07-30T07:19:32;2.58;;;2.05;;
28844;SDS011;15976;47.938;7.758;2023-07-30T07:22:06;3.63;;;1.92;;
28844;SDS011;15976;47.938;7.758;2023-07-30T07:24:33;2.97;;;2.10;;
28844;SDS011;15976;47.938;7.758;2023-07-30T07:27:00;3.78;;;1.90;;
28844;SDS011;15976;47.938;7.758;2023-07-30T07:29:27;4.47;;;2.22;;
28844;SDS011;15976;47.938;7.758;2023-07-30T07:31:58;9.15;;;5.22;;
28844;SDS011;15976;47.938;7.758;2023-07-30T07:34:25;3.75;;;2.10;;
28844;SDS011;15976;47.938;7.758;2023-07-30T07:36:52;3.35;;;2.00;;
28844;SDS011;15976;47.938;7.758;2023-07-30T07:39:19;2.55;;;2.00;;
28844;SDS011;15976;47.938;7.758;2023-07-30T07:41:46;3.70;;;1.85;;
28844;SDS011;15976;47.938;7.758;2023-07-30T07:44:13;4.82;;;2.20;;
28844;SDS011;15976;47.938;7.758;2023-07-30T07:46:40;3.85;;;2.08;;
28844;SDS011;15976;47.938;7.758;2023-07-30T07:49:07;5.88;;;2.40;;
28844;SDS011;15976;47.938;7.758;2023-07-30T07:51:35;4.05;;;2.17;;
28844;SDS011;15976;47.938;7.758;2023-07-30T07:54:02;3.97;;;2.20;;
28844;SDS011;15976;47.938;7.758;2023-07-30T07:56:30;2.97;;;2.08;;
28844;SDS011;15976;47.938;7.758;2023-07-30T07:59:05;4.60;;;2.33;;
28844;SDS011;15976;47.938;7.758;2023-07-30T08:01:33;2.40;;;2.00;;
28844;SDS011;15976;47.938;7.758;2023-07-30T08:04:02;2.65;;;2.13;;
28844;SDS011;15976;47.938;7.758;2023-07-30T08:06:39;2.60;;;2.30;;
28844;SDS011;15976;47.938;7.758;2023-07-30T08:09:21;5.45;;;3.67;;
28844;SDS011;15976;47.938;7.758;2023-07-30T08:12:07;3.25;;;2.00;;
28844;SDS011;15976;47.938;7.758;2023-07-30T08:14:48;2.42;;;1.95;;
28844;SDS011;15976;47.938;7.758;2023-07-30T08:17:47;3.22;;;2.30;;
28844;SDS011;15976;47.938;7.758;2023-07-30T08:21:19;2.20;;;1.88;;
28844;SDS011;15976;47.938;7.758;2023-07-30T08:24:23;3.80;;;2.30;;
28844;SDS011;15976;47.938;7.758;2023-07-30T08:27:07;2.60;;;1.92;;
28844;SDS011;15976;47.938;7.758;2023-07-30T08:29:52;2.15;;;1.95;;
28844;SDS011;15976;47.938;7.758;2023-07-30T08:32:34;2.70;;;2.08;;
28844;SDS011;15976;47.938;7.758;2023-07-30T08:35:34;3.13;;;1.85;;
28844;SDS011;15976;47.938;7.758;2023-07-30T08:38:59;2.50;;;1.80;;
28844;SDS011;15976;47.938;7.758;2023-07-30T08:42:00;2.05;;;1.83;;
28844;SDS011;15976;47.938;7.758;2023-07-30T08:44:44;2.83;;;1.88;;
28844;SDS011;15976;47.938;7.758;2023-07-30T08:54:06;2.00;;;1.77;;
28844;SDS011;15976;47.938;7.758;2023-07-30T08:57:13;2.22;;;1.90;;
28844;SDS011;15976;47.938;7.758;2023-07-30T09:00:05;2.47;;;1.90;;
28844;SDS011;15976;47.938;7.758;2023-07-30T09:03:03;1.70;;;1.60;;
28844;SDS011;15976;47.938;7.758;2023-07-30T09:05:49;2.03;;;1.77;;
28844;SDS011;15976;47.938;7.758;2023-07-30T09:08:34;2.38;;;2.00;;
28844;SDS011;15976;47.938;7.758;2023-07-30T09:11:14;2.47;;;1.85;;
28844;SDS011;15976;47.938;7.758;2023-07-30T09:14:01;5.13;;;1.90;;
28844;SDS011;15976;47.938;7.758;2023-07-30T09:16:56;2.67;;;1.90;;
28844;SDS011;15976;47.938;7.758;2023-07-30T09:19:38;2.58;;;1.75;;
28844;SDS011;15976;47.938;7.758;2023-07-30T09:22:27;2.00;;;1.52;;
28844;SDS011;15976;47.938;7.758;2023-07-30T09:25:20;2.30;;;1.70;;
28844;SDS011;15976;47.938;7.758;2023-07-30T09:28:04;2.10;;;1.75;;
28844;SDS011;15976;47.938;7.758;2023-07-30T09:30:32;2.38;;;1.42;;
28844;SDS011;15976;47.938;7.758;2023-07-30T09:33:00;4.32;;;1.70;;
28844;SDS011;15976;47.938;7.758;2023-07-30T09:35:27;2.22;;;1.60;;
28844;SDS011;15976;47.938;7.758;2023-07-30T09:38:01;2.08;;;1.67;;
28844;SDS011;15976;47.938;7.758;2023-07-30T09:40:33;2.55;;;1.90;;
28844;SDS011;15976;47.938;7.758;2023-07-30T09:46:16;1.90;;;1.52;;
28844;SDS011;15976;47.938;7.758;2023-07-30T09:52:13;2.22;;;1.90;;
28844;SDS011;15976;47.938;7.758;2023-07-30T09:54:42;2.88;;;2.20;;
28844;SDS011;15976;47.938;7.758;2023-07-30T09:57:09;3.50;;;2.00;;
28844;SDS011;15976;47.938;7.758;2023-07-30T09:59:36;3.42;;;1.90;;
28844;SDS011;15976;47.938;7.758;2023-07-30T10:02:04;2.40;;;1.70;;
28844;SDS011;15976;47.938;7.758;2023-07-30T10:04:34;3.22;;;1.90;;
28844;SDS011;15976;47.938;7.758;2023-07-30T10:07:08;2.60;;;2.10;;
28844;SDS011;15976;47.938;7.758;2023-07-30T10:09:42;1.90;;;1.70;;
28844;SDS011;15976;47.938;7.758;2023-07-30T10:12:23;3.28;;;1.90;;
28844;SDS011;15976;47.938;7.758;2023-07-30T10:14:53;2.43;;;1.83;;
28844;SDS011;15976;47.938;7.758;2023-07-30T10:17:27;2.67;;;1.85;;
28844;SDS011;15976;47.938;7.758;2023-07-30T10:19:57;2.80;;;2.20;;
28844;SDS011;15976;47.938;7.758;2023-07-30T10:22:55;2.03;;;1.63;;
28844;SDS011;15976;47.938;7.758;2023-07-30T10:25:29;2.97;;;1.80;;
28844;SDS011;15976;47.938;7.758;2023-07-30T10:28:08;3.45;;;1.98;;
28844;SDS011;15976;47.938;7.758;2023-07-30T10:30:36;3.22;;;1.90;;
28844;SDS011;15976;47.938;7.758;2023-07-30T10:33:12;2.20;;;1.98;;
28844;SDS011;15976;47.938;7.758;2023-07-30T10:35:53;2.92;;;2.08;;
28844;SDS011;15976;47.938;7.758;2023-07-30T10:39:17;2.28;;;2.08;;
28844;SDS011;15976;47.938;7.758;2023-07-30T10:41:48;2.70;;;1.80;;
28844;SDS011;15976;47.938;7.758;2023-07-30T10:44:27;2.93;;;1.97;;
28844;SDS011;15976;47.938;7.758;2023-07-30T10:46:57;2.72;;;1.98;;
28844;SDS011;15976;47.938;7.758;2023-07-30T10:49:26;2.92;;;1.70;;
28844;SDS011;15976;47.938;7.758;2023-07-30T10:51:57;2.67;;;2.10;;
28844;SDS011;15976;47.938;7.758;2023-07-30T10:54:33;3.10;;;1.92;;
28844;SDS011;15976;47.938;7.758;2023-07-30T10:57:01;4.15;;;2.22;;
28844;SDS011;15976;47.938;7.758;2023-07-30T10:59:33;2.28;;;1.80;;
28844;SDS011;15976;47.938;7.758;2023-07-30T11:02:04;4.00;;;1.77;;
28844;SDS011;15976;47.938;7.758;2023-07-30T11:04:33;4.80;;;1.80;;
28844;SDS011;15976;47.938;7.758;2023-07-30T11:07:01;2.80;;;2.10;;
28844;SDS011;15976;47.938;7.758;2023-07-30T11:09:30;4.00;;;1.77;;
28844;SDS011;15976;47.938;7.758;2023-07-30T11:12:00;3.30;;;2.00;;
28844;SDS011;15976;47.938;7.758;2023-07-30T11:14:28;2.38;;;1.83;;
28844;SDS011;15976;47.938;7.758;2023-07-30T11:16:59;8.70;;;2.30;;
28844;SDS011;15976;47.938;7.758;2023-07-30T11:19:33;3.93;;;2.00;;
28844;SDS011;15976;47.938;7.758;2023-07-30T11:22:00;3.67;;;2.05;;
28844;SDS011;15976;47.938;7.758;2023-07-30T11:24:34;2.13;;;1.83;;
28844;SDS011;15976;47.938;7.758;2023-07-30T11:27:02;1.92;;;1.75;;
28844;SDS011;15976;47.938;7.758;2023-07-30T11:29:39;2.53;;;1.85;;
28844;SDS011;15976;47.938;7.758;2023-07-30T11:32:07;1.95;;;1.60;;
28844;SDS011;15976;47.938;7.758;2023-07-30T11:34:37;2.70;;;1.77;;
28844;SDS011;15976;47.938;7.758;2023-07-30T11:37:06;2.67;;;1.83;;
28844;SDS011;15976;47.938;7.758;2023-07-30T11:39:34;3.95;;;1.98;;
28844;SDS011;15976;47.938;7.758;2023-07-30T11:42:02;2.58;;;1.80;;
28844;SDS011;15976;47.938;7.758;2023-07-30T11:44:45;3.03;;;1.70;;
28844;SDS011;15976;47.938;7.758;2023-07-30T11:47:13;2.83;;;2.08;;
28844;SDS011;15976;47.938;7.758;2023-07-30T11:49:56;2.72;;;1.75;;
28844;SDS011;15976;47.938;7.758;2023-07-30T11:52:24;2.85;;;1.80;;
28844;SDS011;15976;47.938;7.758;2023-07-30T11:55:04;3.78;;;2.10;;
28844;SDS011;15976;47.938;7.758;2023-07-30T11:57:34;3.00;;;1.90;;
28844;SDS011;15976;47.938;7.758;2023-07-30T12:00:14;4.20;;;2.33;;
28844;SDS011;15976;47.938;7.758;2023-07-30T12:02:51;2.40;;;1.83;;
28844;SDS011;15976;47.938;7.758;2023-07-30T12:05:34;2.85;;;1.80;;
28844;SDS011;15976;47.938;7.758;2023-07-30T12:08:02;3.47;;;2.10;;
28844;SDS011;15976;47.938;7.758;2023-07-30T12:10:46;3.42;;;2.25;;
28844;SDS011;15976;47.938;7.758;2023-07-30T12:13:19;2.45;;;1.90;;
28844;SDS011;15976;47.938;7.758;2023-07-30T12:15:55;3.53;;;1.98;;
28844;SDS011;15976;47.938;7.758;2023-07-30T12:18:23;2.13;;;1.80;;
28844;SDS011;15976;47.938;7.758;2023-07-30T12:20:53;2.30;;;1.45;;
28844;SDS011;15976;47.938;7.758;2023-07-30T12:23:20;2.60;;;2.00;;
28844;SDS011;15976;47.938;7.758;2023-07-30T12:25:48;4.10;;;2.15;;
28844;SDS011;15976;47.938;7.758;2023-07-30T12:28:15;4.40;;;2.30;;
28844;SDS011;15976;47.938;7.758;2023-07-30T12:30:42;3.95;;;2.10;;
28844;SDS011;15976;47.938;7.758;2023-07-30T12:33:13;4.22;;;2.50;;
28844;SDS011;15976;47.938;7.758;2023-07-30T12:38:42;4.20;;;2.70;;
28844;SDS011;15976;47.938;7.758;2023-07-30T12:41:12;3.25;;;1.95;;
28844;SDS011;15976;47.938;7.758;2023-07-30T12:43:40;3.75;;;2.45;;
28844;SDS011;15976;47.938;7.758;2023-07-30T12:46:13;3.27;;;2.10;;
28844;SDS011;15976;47.938;7.758;2023-07-30T12:48:41;3.20;;;2.08;;
28844;SDS011;15976;47.938;7.758;2023-07-30T12:51:08;3.28;;;2.20;;
28844;SDS011;15976;47.938;7.758;2023-07-30T12:53:44;2.95;;;2.10;;
28844;SDS011;15976;47.938;7.758;2023-07-30T12:56:17;3.70;;;2.20;;
28844;SDS011;15976;47.938;7.758;2023-07-30T12:58:49;3.03;;;2.20;;
28844;SDS011;15976;47.938;7.758;2023-07-30T13:01:18;4.00;;;2.15;;
28844;SDS011;15976;47.938;7.758;2023-07-30T13:07:12;2.65;;;1.70;;
28844;SDS011;15976;47.938;7.758;2023-07-30T13:09:45;2.92;;;1.90;;
28844;SDS011;15976;47.938;7.758;2023-07-30T13:12:15;2.85;;;1.90;;
28844;SDS011;15976;47.938;7.758;2023-07-30T13:14:43;2.53;;;2.00;;
28844;SDS011;15976;47.938;7.758;2023-07-30T13:17:10;6.07;;;2.10;;
28844;SDS011;15976;47.938;7.758;2023-07-30T13:19:38;3.30;;;2.10;;
28844;SDS011;15976;47.938;7.758;2023-07-30T13:22:05;2.60;;;1.98;;
28844;SDS011;15976;47.938;7.758;2023-07-30T13:24:33;2.72;;;2.03;;
28844;SDS011;15976;47.938;7.758;2023-07-30T13:27:02;3.20;;;2.20;;
28844;SDS011;15976;47.938;7.758;2023-07-30T13:29:29;3.40;;;2.00;;
28844;SDS011;15976;47.938;7.758;2023-07-30T13:32:00;2.53;;;2.05;;
28844;SDS011;15976;47.938;7.758;2023-07-30T13:34:28;2.20;;;1.73;;
28844;SDS011;15976;47.938;7.758;2023-07-30T13:36:55;2.53;;;1.83;;
28844;SDS011;15976;47.938;7.758;2023-07-30T13:39:25;2.97;;;1.95;;
28844;SDS011;15976;47.938;7.758;2023-07-30T13:41:52;3.10;;;1.88;;
28844;SDS011;15976;47.938;7.758;2023-07-30T13:44:20;2.67;;;2.10;;
28844;SDS011;15976;47.938;7.758;2023-07-30T13:47:06;2.80;;;1.98;;
28844;SDS011;15976;47.938;7.758;2023-07-30T13:49:37;2.65;;;2.13;;
28844;SDS011;15976;47.938;7.758;2023-07-30T13:52:04;2.83;;;1.80;;
28844;SDS011;15976;47.938;7.758;2023-07-30T13:54:32;3.53;;;1.73;;
28844;SDS011;15976;47.938;7.758;2023-07-30T13:57:02;4.68;;;2.30;;
28844;SDS011;15976;47.938;7.758;2023-07-30T13:59:31;2.80;;;2.00;;
28844;SDS011;15976;47.938;7.758;2023-07-30T14:01:58;4.57;;;2.17;;
28844;SDS011;15976;47.938;7.758;2023-07-30T14:04:26;3.85;;;1.80;;
28844;SDS011;15976;47.938;7.758;2023-07-30T14:07:00;2.40;;;2.00;;
28844;SDS011;15976;47.938;7.758;2023-07-30T14:09:27;3.83;;;1.92;;
28844;SDS011;15976;47.938;7.758;2023-07-30T14:11:59;2.80;;;1.80;;
28844;SDS011;15976;47.938;7.758;2023-07-30T14:14:27;3.60;;;1.90;;
28844;SDS011;15976;47.938;7.758;2023-07-30T14:17:06;2.55;;;1.92;;
28844;SDS011;15976;47.938;7.758;2023-07-30T14:19:46;3.72;;;1.90;;
28844;SDS011;15976;47.938;7.758;2023-07-30T14:22:13;3.30;;;1.80;;
28844;SDS011;15976;47.938;7.758;2023-07-30T14:24:41;3.65;;;1.83;;
28844;SDS011;15976;47.938;7.758;2023-07-30T14:27:12;2.53;;;1.75;;
28844;SDS011;15976;47.938;7.758;2023-07-30T14:29:40;2.67;;;1.67;;
28844;SDS011;15976;47.938;7.758;2023-07-30T14:32:17;1.73;;;1.50;;
28844;SDS011;15976;47.938;7.758;2023-07-30T14:34:50;3.05;;;1.80;;
28844;SDS011;15976;47.938;7.758;2023-07-30T14:37:19;2.90;;;1.73;;
28844;SDS011;15976;47.938;7.758;2023-07-30T14:39:46;4.38;;;1.60;;
28844;SDS011;15976;47.938;7.758;2023-07-30T14:42:16;3.53;;;1.55;;
28844;SDS011;15976;47.938;7.758;2023-07-30T14:44:43;4.15;;;1.90;;
28844;SDS011;15976;47.938;7.758;2023-07-30T14:47:10;2.70;;;1.70;;
28844;SDS011;15976;47.938;7.758;2023-07-30T14:49:38;2.38;;;1.65;;
28844;SDS011;15976;47.938;7.758;2023-07-30T14:52:06;1.77;;;1.35;;
28844;SDS011;15976;47.938;7.758;2023-07-30T14:54:34;2.78;;;1.65;;
28844;SDS011;15976;47.938;7.758;2023-07-30T14:57:01;2.42;;;1.60;;
28844;SDS011;15976;47.938;7.758;2023-07-30T14:59:29;4.38;;;1.95;;
28844;SDS011;15976;47.938;7.758;2023-07-30T15:01:57;4.22;;;1.90;;
28844;SDS011;15976;47.938;7.758;2023-07-30T15:04:24;4.57;;;1.60;;
28844;SDS011;15976;47.938;7.758;2023-07-30T15:06:52;4.70;;;1.65;;
28844;SDS011;15976;47.938;7.758;2023-07-30T15:09:19;4.05;;;1.80;;
28844;SDS011;15976;47.938;7.758;2023-07-30T15:11:46;1.90;;;1.40;;
28844;SDS011;15976;47.938;7.758;2023-07-30T15:14:13;4.03;;;1.75;;
28844;SDS011;15976;47.938;7.758;2023-07-30T15:16:44;2.00;;;1.48;;
28844;SDS011;15976;47.938;7.758;2023-07-30T15:19:28;2.50;;;1.80;;
28844;SDS011;15976;47.938;7.758;2023-07-30T15:21:56;2.60;;;1.80;;
28844;SDS011;15976;47.938;7.758;2023-07-30T15:24:23;2.53;;;1.90;;
28844;SDS011;15976;47.938;7.758;2023-07-30T15:26:50;3.05;;;1.63;;
28844;SDS011;15976;47.938;7.758;2023-07-30T15:29:18;3.22;;;1.67;;
28844;SDS011;15976;47.938;7.758;2023-07-30T15:31:45;3.28;;;1.67;;